Time;durP1;ratioP1;P1;durP2;ratioP2;P2;SDS_P1;SDS_P2;PMS_P1;PMS_P2;Temp;Humidity;BMP_temperature;BMP_pressure;BME280_temperature;BME280_humidity;BME280_pressure;Samples;Min_cycle;Max_cycle;Signal;HPM_P1;HPM_P2
2021/01/19 00:05:36;;;;;;;48.43;35.63;;;;;;;;;;14993336;29;20230;-79
2021/01/19 00:13:02;;;;;;;49.47;36.30;;;;;;;;;;14995611;29;20687;-83
2021/01/19 00:20:31;;;;;;;52.57;37.67;;;;;;;;;;15011752;29;20225;-81
2021/01/19 00:28:01;;;;;;;45.23;34.57;;;;;;;;;;14991816;29;20214;-80
2021/01/19 00:35:27;;;;;;;46.27;33.30;;;;;;;;;;15009453;29;20226;-80
2021/01/19 00:42:53;;;;;;;43.93;33.63;;;;;;;;;;15010069;29;20198;-80
2021/01/19 00:50:21;;;;;;;43.43;32.77;;;;;;;;;;15010339;29;20210;-87
2021/01/19 00:57:50;;;;;;;42.80;32.80;;;;;;;;;;14994906;29;20289;-87
2021/01/19 01:05:24;;;;;;;43.63;33.20;;;;;;;;;;15003365;29;20186;-87
2021/01/19 01:12:51;;;;;;;46.20;33.53;;;;;;;;;;14992153;29;20873;-81
2021/01/19 01:20:17;;;;;;;45.77;34.00;;;;;;;;;;14975648;29;20274;-80
2021/01/19 01:27:45;;;;;;;47.20;35.07;;;;;;;;;;14991852;29;20242;-80
2021/01/19 01:35:15;;;;;;;46.50;34.97;;;;;;;;;;15011992;29;20202;-79
2021/01/19 01:42:41;;;;;;;47.37;36.10;;;;;;;;;;15015246;29;20194;-80
2021/01/19 01:50:09;;;;;;;48.00;36.33;;;;;;;;;;15018706;29;20197;-87
2021/01/19 01:57:37;;;;;;;54.00;38.40;;;;;;;;;;15059220;29;20226;-81
2021/01/19 02:05:04;;;;;;;50.57;37.00;;;;;;;;;;15005607;29;20276;-84
2021/01/19 02:12:40;;;;;;;49.73;37.10;;;1.50;71.60;;;;;;15021710;29;20225;-83
2021/01/19 02:20:30;;;;;;;48.67;36.70;;;;;;;;;;15016474;29;20242;-84
2021/01/19 02:28:25;;;;;;;48.13;36.17;;;1.50;72.00;;;;;;15007242;29;20234;-84
2021/01/19 02:36:00;;;;;;;49.83;36.13;;;;;;;;;;15017183;29;20277;-80
2021/01/19 02:43:26;;;;;;;44.50;34.13;;;;;;;;;;15015797;29;20190;-81
2021/01/19 02:50:55;;;;;;;44.90;34.83;;;;;;;;;;15013887;29;20196;-84
2021/01/19 02:58:40;;;;;;;42.03;32.40;;;;;;;;;;15015331;29;20218;-86
2021/01/19 03:06:11;;;;;;;43.70;34.00;;;;;;;;;;15015815;29;20194;-86
2021/01/19 03:13:38;;;;;;;41.93;33.37;;;;;;;;;;14995191;29;20672;-81
2021/01/19 03:21:05;;;;;;;41.63;32.27;;;;;;;;;;14996565;29;20237;-82
2021/01/19 03:28:35;;;;;;;45.40;33.47;;;;;;;;;;14997085;29;20453;-85
2021/01/19 03:36:05;;;;;;;40.43;32.20;;;;;;;;;;14995293;29;20345;-82
2021/01/19 03:43:34;;;;;;;42.47;32.77;;;;;;;;;;15012649;29;20186;-86
2021/01/19 03:51:03;;;;;;;41.53;33.03;;;;;;;;;;15014903;29;20599;-87
2021/01/19 03:58:29;;;;;;;43.93;32.80;;;;;;;;;;15013386;29;20226;-82
2021/01/19 04:05:57;;;;;;;37.83;30.57;;;;;;;;;;15012499;29;20193;-85
2021/01/19 04:13:23;;;;;;;38.57;29.87;;;;;;;;;;14995525;29;20195;-85
2021/01/19 04:20:52;;;;;;;35.70;30.07;;;;;;;;;;14999145;29;20265;-86
2021/01/19 04:28:19;;;;;;;33.87;27.40;;;;;;;;;;15011779;29;20222;-82
2021/01/19 04:35:45;;;;;;;35.40;27.43;;;;;;;;;;15009817;29;20236;-81
2021/01/19 04:43:14;;;;;;;34.97;28.03;;;4.00;75.60;;;;;;15031700;29;20213;-86
2021/01/19 04:50:41;;;;;;;32.37;26.33;;;;;;;;;;15057812;29;20182;-88
2021/01/19 04:58:09;;;;;;;31.30;25.83;;;;;;;;;;15011153;29;20270;-87
2021/01/19 05:06:10;;;;;;;30.90;25.40;;;1.80;75.40;;;;;;15009309;29;20194;-87
2021/01/19 05:13:53;;;;;;;27.47;22.03;;;4.10;76.50;;;;;;15002927;29;20210;-86
2021/01/19 05:21:22;;;;;;;25.23;20.27;;;;;;;;;;14990914;29;20236;-81
2021/01/19 05:28:49;;;;;;;25.20;19.83;;;;;;;;;;15007423;29;20222;-83
2021/01/19 05:36:20;;;;;;;23.53;19.43;;;3.70;77.90;;;;;;15005206;29;20747;-80
2021/01/19 05:43:46;;;;;;;26.90;21.70;;;;;;;;;;14989931;29;20191;-80
2021/01/19 05:51:15;;;;;;;24.77;19.87;;;;;;;;;;14989566;29;20205;-82
2021/01/19 05:58:48;;;;;;;25.00;19.77;;;;;;;;;;14989862;29;20712;-83
2021/01/19 06:06:18;;;;;;;24.80;18.03;;;;;;;;;;15007670;29;20224;-87
2021/01/19 06:13:50;;;;;;;25.30;19.43;;;;;;;;;;14991783;29;20206;-87
2021/01/19 06:21:26;;;;;;;26.10;20.00;;;;;;;;;;15007782;29;20599;-85
2021/01/19 06:28:53;;;;;;;31.03;25.17;;;;;;;;;;15015044;29;20309;-86
2021/01/19 06:36:20;;;;;;;33.17;25.80;;;;;;;;;;15018396;29;20228;-89
2021/01/19 06:43:48;;;;;;;31.30;23.93;;;;;;;;;;15006846;29;20217;-84
2021/01/19 06:51:16;;;;;;;22.77;18.37;;;;;;;;;;15018927;29;20322;-91
2021/01/19 06:58:48;;;;;;;24.37;17.10;;;;;;;;;;15021985;29;20769;-86
2021/01/19 07:06:17;;;;;;;21.97;15.10;;;;;;;;;;15005868;29;20763;-83
2021/01/19 07:13:50;;;;;;;15.17;11.83;;;;;;;;;;14998105;29;20253;-81
2021/01/19 07:21:19;;;;;;;15.47;12.40;;;;;;;;;;15007185;29;20295;-82
2021/01/19 07:28:48;;;;;;;18.63;13.47;;;;;;;;;;14998095;29;20220;-81
2021/01/19 07:36:14;;;;;;;17.20;13.10;;;;;;;;;;14999796;29;20248;-79
2021/01/19 07:43:44;;;;;;;14.33;10.93;;;;;;;;;;15006792;29;20193;-80
2021/01/19 07:51:20;;;;;;;12.13;9.27;;;;;;;;;;15010549;29;20190;-79
2021/01/19 07:58:47;;;;;;;13.40;10.20;;;;;;;;;;14971849;29;20305;-80
2021/01/19 08:06:14;;;;;;;9.90;8.07;;;;;;;;;;15006617;29;20245;-80
2021/01/19 08:13:46;;;;;;;13.97;11.30;;;;;;;;;;14991143;29;20229;-80
2021/01/19 08:21:16;;;;;;;12.03;9.13;;;;;;;;;;15004097;29;20238;-78
2021/01/19 08:28:43;;;;;;;14.57;10.47;;;;;;;;;;15005257;29;20221;-82
2021/01/19 08:36:10;;;;;;;14.00;10.40;;;;;;;;;;14988635;29;20301;-81
2021/01/19 08:43:39;;;;;;;18.27;11.33;;;;;;;;;;15009136;29;20198;-82
2021/01/19 08:51:06;;;;;;;11.37;8.40;;;;;;;;;;14975909;29;20684;-81
2021/01/19 08:58:33;;;;;;;7.83;6.50;;;;;;;;;;15013447;29;20244;-83
2021/01/19 09:06:02;;;;;;;8.73;5.50;;;;;;;;;;15023971;29;20613;-88
2021/01/19 09:13:33;;;;;;;7.17;5.50;;;4.50;77.50;;;;;;14998692;29;20216;-84
2021/01/19 09:21:03;;;;;;;6.07;4.90;;;;;;;;;;14984481;29;20312;-90
2021/01/19 09:28:37;;;;;;;7.90;4.60;;;;;;;;;;15003521;29;20544;-84
2021/01/19 09:36:07;;;;;;;7.37;5.30;;;;;;;;;;15006553;29;20609;-81
2021/01/19 09:43:34;;;;;;;6.80;4.60;;;;;;;;;;14957906;29;20237;-84
2021/01/19 09:51:02;;;;;;;9.00;5.40;;;;;;;;;;14992824;29;20257;-80
2021/01/19 09:58:30;;;;;;;7.17;4.93;;;;;;;;;;14989555;29;20236;-80
2021/01/19 10:06:00;;;;;;;6.63;5.50;;;;;;;;;;15012410;29;20606;-82
2021/01/19 10:13:29;;;;;;;6.77;4.43;;;;;;;;;;15017352;29;20186;-82
2021/01/19 10:21:07;;;;;;;8.30;4.90;;;;;;;;;;15002072;29;20234;-83
2021/01/19 10:28:38;;;;;;;7.03;5.30;;;;;;;;;;14997417;29;20301;-83
2021/01/19 10:36:07;;;;;;;10.33;7.40;;;;;;;;;;14998594;29;20269;-80
2021/01/19 10:43:34;;;;;;;13.27;10.23;;;;;;;;;;14994954;29;20218;-79
2021/01/19 10:51:00;;;;;;;17.83;13.63;;;;;;;;;;15009969;29;20198;-81
2021/01/19 10:58:27;;;;;;;20.07;14.90;;;;;;;;;;15007056;29;20265;-81
2021/01/19 11:05:54;;;;;;;20.03;14.40;;;;;;;;;;14991760;29;20213;-81
2021/01/19 11:13:23;;;;;;;21.30;15.43;;;;;;;;;;14996737;29;20203;-90
2021/01/19 11:20:54;;;;;;;22.10;16.50;;;;;;;;;;15013258;29;20244;-84
2021/01/19 11:28:20;;;;;;;25.33;17.27;;;;;;;;;;15002432;29;20218;-82
2021/01/19 11:35:47;;;;;;;24.37;18.53;;;;;;;;;;14986372;29;20229;-82
2021/01/19 11:43:17;;;;;;;24.03;19.17;;;;;;;;;;14996163;29;20225;-85
2021/01/19 11:50:46;;;;;;;24.60;19.53;;;;;;;;;;15007430;29;20232;-80
2021/01/19 11:58:17;;;;;;;23.97;20.60;;;;;;;;;;14990154;29;20250;-79
2021/01/19 12:05:50;;;;;;;25.73;20.90;;;;;;;;;;15008708;29;20280;-82
2021/01/19 12:13:20;;;;;;;31.13;23.73;;;;;;;;;;14976662;29;20214;-80
2021/01/19 12:20:46;;;;;;;29.93;24.07;;;;;;;;;;15005182;29;20320;-80
2021/01/19 12:28:12;;;;;;;31.93;24.13;;;;;;;;;;15005334;29;20217;-79
2021/01/19 12:35:40;;;;;;;28.97;23.93;;;;;;;;;;14987647;29;20230;-79
2021/01/19 12:43:08;;;;;;;30.13;23.90;;;;;;;;;;15006326;29;20681;-81
2021/01/19 12:50:46;;;;;;;33.03;25.07;;;;;;;;;;15843741;23;20444;-78
2021/01/19 12:58:16;;;;;;;33.20;25.33;;;;;;;;;;14976661;29;20242;-79
2021/01/19 13:05:42;;;;;;;30.77;24.60;;;;;;;;;;15002741;29;20202;-78
2021/01/19 13:13:09;;;;;;;30.37;24.77;;;;;;;;;;15003555;29;20653;-78
2021/01/19 13:20:37;;;;;;;33.10;26.13;;;;;;;;;;14990447;29;20218;-80
2021/01/19 13:28:04;;;;;;;32.97;25.97;;;;;;;;;;15007126;29;20182;-79
2021/01/19 13:35:31;;;;;;;28.70;23.53;;;;;;;;;;14973971;29;20206;-79
2021/01/19 13:42:59;;;;;;;26.97;22.37;;;;;;;;;;15029209;29;20217;-78
2021/01/19 13:50:26;;;;;;;27.97;22.07;;;;;;;;;;14964913;29;20242;-78
2021/01/19 13:57:54;;;;;;;26.40;20.93;;;;;;;;;;15004474;29;20308;-81
2021/01/19 14:05:22;;;;;;;30.03;22.33;;;;;;;;;;14988285;29;20203;-78
2021/01/19 14:12:49;;;;;;;31.20;23.33;;;;;;;;;;15017362;29;20267;-79
2021/01/19 14:20:16;;;;;;;27.63;21.70;;;;;;;;;;14994037;29;20229;-80
2021/01/19 14:27:45;;;;;;;27.43;20.90;;;;;;;;;;14984277;29;20862;-80
2021/01/19 14:35:11;;;;;;;31.63;22.87;;;;;;;;;;15002068;29;20301;-82
2021/01/19 14:42:38;;;;;;;28.43;21.03;;;;;;;;;;15018865;29;20408;-79
2021/01/19 14:50:06;;;;;;;37.17;23.57;;;;;;;;;;15014080;29;20725;-80
2021/01/19 14:57:33;;;;;;;31.73;23.67;;;;;;;;;;14999418;29;20656;-80
2021/01/19 15:05:05;;;;;;;38.63;25.20;;;;;;;;;;15019246;29;20185;-80
2021/01/19 15:12:34;;;;;;;37.53;25.33;;;;;;;;;;15016151;29;20328;-81
2021/01/19 15:20:01;;;;;;;37.97;27.13;;;;;;;;;;15019766;29;20631;-80
2021/01/19 15:27:31;;;;;;;33.57;25.93;;;;;;;;;;14985907;29;20209;-78
2021/01/19 15:35:00;;;;;;;29.73;24.57;;;;;;;;;;14984836;29;20575;-82
2021/01/19 15:42:27;;;;;;;43.93;27.83;;;;;;;;;;14997436;29;20202;-79
2021/01/19 15:49:54;;;;;;;37.63;26.33;;;;;;;;;;14998972;29;20222;-80
2021/01/19 15:57:24;;;;;;;38.80;27.13;;;;;;;;;;15012349;29;20242;-79
2021/01/19 16:04:53;;;;;;;42.77;27.63;;;;;;;;;;14997910;29;20190;-78
2021/01/19 16:12:41;;;;;;;47.13;28.77;;;;;;;;;;15001491;29;20435;-77
2021/01/19 16:20:09;;;;;;;43.10;28.60;;;;;;;;;;15013072;29;20289;-79
2021/01/19 16:27:36;;;;;;;40.43;28.33;;;;;;;;;;14981471;29;20233;-77
2021/01/19 16:35:04;;;;;;;42.33;28.73;;;;;;;;;;14979912;29;20537;-79
2021/01/19 16:42:31;;;;;;;39.37;28.50;;;;;;;;;;15012571;29;20301;-79
2021/01/19 16:49:59;;;;;;;40.10;29.20;;;;;;;;;;15011229;29;20772;-78
2021/01/19 16:57:26;;;;;;;35.63;26.13;;;;;;;;;;14976892;29;20582;-79
2021/01/19 17:04:53;;;;;;;35.73;24.37;;;;;;;;;;15007303;29;20221;-82
2021/01/19 17:12:20;;;;;;;34.67;22.83;;;;;;;;;;15009689;29;20277;-82
2021/01/19 17:19:48;;;;;;;27.53;20.40;;;;;;;;;;14972678;29;20230;-79
2021/01/19 17:27:15;;;;;;;23.47;17.53;;;;;;;;;;15007877;29;20239;-81
2021/01/19 17:34:42;;;;;;;23.37;17.00;;;;;;;;;;14992533;29;20632;-81
2021/01/19 17:42:14;;;;;;;24.13;17.10;;;;;;;;;;14997736;29;20245;-79
2021/01/19 17:49:43;;;;;;;22.37;16.57;;;;;;;;;;15006529;29;20277;-80
2021/01/19 17:57:10;;;;;;;23.20;16.60;;;;;;;;;;14996791;29;20243;-82
2021/01/19 18:04:38;;;;;;;23.50;16.03;;;;;;;;;;14991221;29;20206;-80
2021/01/19 18:12:05;;;;;;;20.57;16.20;;;;;;;;;;15004975;29;20205;-79
2021/01/19 18:19:33;;;;;;;22.27;16.77;;;;;;;;;;14992065;29;20760;-80
2021/01/19 18:27:01;;;;;;;21.03;15.73;;;;;;;;;;15002444;29;20310;-83
2021/01/19 18:34:29;;;;;;;23.40;17.10;;;;;;;;;;14991432;29;20645;-81
2021/01/19 18:42:01;;;;;;;23.33;16.17;;;;;;;;;;15021653;29;20228;-79
2021/01/19 18:49:28;;;;;;;22.80;17.10;;;;;;;;;;15019065;29;20557;-81
2021/01/19 18:56:56;;;;;;;20.80;16.07;;;;;;;;;;15017464;29;20234;-82
2021/01/19 19:04:24;;;;;;;22.50;15.43;;;;;;;;;;14999078;29;20198;-84
2021/01/19 19:11:51;;;;;;;18.77;15.10;;;;;;;;;;15019043;29;20250;-84
2021/01/19 19:19:19;;;;;;;19.57;15.43;;;;;;;;;;15007596;29;20234;-84
2021/01/19 19:26:47;;;;;;;19.80;14.37;;;;;;;;;;14994448;29;20245;-77
2021/01/19 19:34:13;;;;;;;19.07;13.40;;;;;;;;;;15015288;29;20578;-80
2021/01/19 19:41:41;;;;;;;18.10;13.70;;;;;;;;;;14996429;29;20249;-77
2021/01/19 19:49:09;;;;;;;17.13;13.40;;;;;;;;;;14995591;29;20731;-77
2021/01/19 19:56:36;;;;;;;15.97;13.23;;;;;;;;;;15010484;29;20234;-77
2021/01/19 20:04:04;;;;;;;17.37;13.30;;;;;;;;;;14995335;29;20293;-78
2021/01/19 20:11:34;;;;;;;18.10;13.43;;;;;;;;;;14994686;29;20598;-77
2021/01/19 20:19:02;;;;;;;17.03;14.80;;;;;;;;;;14995179;29;20256;-77
2021/01/19 20:26:28;;;;;;;18.43;15.23;;;;;;;;;;15010540;29;20277;-75
2021/01/19 20:33:58;;;;;;;19.90;15.67;;;;;;;;;;15011327;29;20756;-79
2021/01/19 20:41:26;;;;;;;18.97;15.63;;;;;;;;;;14993752;29;20249;-77
2021/01/19 20:48:54;;;;;;;18.90;15.77;;;;;;;;;;14992942;29;20217;-78
2021/01/19 20:56:23;;;;;;;18.73;14.97;;;;;;;;;;15006698;29;20229;-77
2021/01/19 21:03:52;;;;;;;17.67;14.93;;;;;;;;;;15003942;29;21220;-76
2021/01/19 21:11:26;;;;;;;18.83;15.80;;;;;;;;;;14997146;29;20194;-76
2021/01/19 21:18:53;;;;;;;18.53;15.87;;;;;;;;;;14932791;29;20584;-79
2021/01/19 21:26:22;;;;;;;20.97;16.30;;;;;;;;;;14997231;29;20202;-77
2021/01/19 21:33:50;;;;;;;19.13;15.80;;;;;;;;;;15006877;29;20251;-78
2021/01/19 21:41:23;;;;;;;22.07;17.10;;;;;;;;;;15005599;29;20224;-78
2021/01/19 21:48:51;;;;;;;23.17;17.30;;;;;;;;;;14990481;29;20229;-77
2021/01/19 21:56:17;;;;;;;21.77;17.53;;;;;;;;;;14990751;29;20229;-76
2021/01/19 22:03:45;;;;;;;21.97;17.10;;;;;;;;;;15002262;29;20230;-77
2021/01/19 22:11:13;;;;;;;21.47;17.03;;;;;;;;;;15018762;29;20194;-77
2021/01/19 22:18:39;;;;;;;24.50;18.37;;;;;;;;;;15000212;29;20288;-77
2021/01/19 22:26:06;;;;;;;22.37;17.83;;;;;;;;;;15000342;29;20206;-76
2021/01/19 22:33:35;;;;;;;24.87;18.67;;;;;;;;;;15001240;29;20198;-78
2021/01/19 22:41:03;;;;;;;23.13;17.93;;;;;;;;;;14985114;29;20361;-79
2021/01/19 22:48:30;;;;;;;22.53;17.07;;;;;;;;;;15000032;29;20306;-79
2021/01/19 22:55:58;;;;;;;21.70;17.37;;;;;;;;;;14983269;29;20233;-81
2021/01/19 23:03:25;;;;;;;21.40;17.83;;;;;;;;;;15011101;29;20225;-77
2021/01/19 23:10:53;;;;;;;22.87;17.43;;;;;;;;;;15003587;29;20202;-77
2021/01/19 23:18:23;;;;;;;21.27;17.70;;;;;;;;;;15014727;29;20248;-78
2021/01/19 23:25:52;;;;;;;21.57;17.17;;;;;;;;;;14998177;29;20202;-78
2021/01/19 23:33:19;;;;;;;19.93;15.70;;;;;;;;;;14981208;29;20561;-76
2021/01/19 23:40:47;;;;;;;20.83;17.07;;;;;;;;;;14997461;29;20222;-77
2021/01/19 23:48:15;;;;;;;20.10;16.40;;;;;;;;;;15015323;29;20226;-75
2021/01/19 23:55:46;;;;;;;18.37;15.70;;;;;;;;;;15054390;29;20241;-77
